createdAt,value
2022-11-29T00:04:30.931Z,7.30
2022-11-29T00:09:32.386Z,6.53
2022-11-29T00:14:33.839Z,6.85
2022-11-29T00:19:35.451Z,6.75
2022-11-29T00:24:36.963Z,5.97
2022-11-29T00:29:38.406Z,6.65
2022-11-29T00:34:39.940Z,5.75
2022-11-29T00:39:41.394Z,5.30
2022-11-29T00:44:43.123Z,5.38
2022-11-29T00:49:44.728Z,5.50
2022-11-29T00:54:46.455Z,5.20
2022-11-29T00:59:48.174Z,4.72
2022-11-29T01:04:49.628Z,5.00
2022-11-29T01:09:51.151Z,4.68
2022-11-29T01:14:52.595Z,5.13
2022-11-29T01:19:54.055Z,4.43
2022-11-29T01:24:55.519Z,4.95
2022-11-29T01:29:56.968Z,4.22
2022-11-29T01:34:58.418Z,3.97
2022-11-29T01:39:59.882Z,4.00
2022-11-29T01:45:24.499Z,3.95
2022-11-29T01:50:26.012Z,4.30
2022-11-29T01:55:27.483Z,4.20
2022-11-29T02:00:29.574Z,4.00
2022-11-29T02:05:31.028Z,4.75
2022-11-29T02:11:15.133Z,4.97
2022-11-29T02:16:59.393Z,5.93
2022-11-29T02:22:05.507Z,5.00
2022-11-29T02:27:24.744Z,6.25
2022-11-29T02:32:50.636Z,6.28
2022-11-29T02:38:10.516Z,7.07
2022-11-29T02:43:44.339Z,7.10
2022-11-29T02:49:00.881Z,6.60
2022-11-29T02:54:20.367Z,7.57
2022-11-29T02:59:32.269Z,7.28
2022-11-29T03:05:11.000Z,8.35
2022-11-29T03:10:25.983Z,8.52
2022-11-29T03:15:28.701Z,7.88
2022-11-29T03:20:56.700Z,7.53
2022-11-29T03:26:12.046Z,7.45
2022-11-29T03:31:21.001Z,8.18
2022-11-29T03:36:34.548Z,7.97
2022-11-29T03:41:45.365Z,8.05
2022-11-29T03:46:58.565Z,8.05
2022-11-29T03:52:24.914Z,8.32
2022-11-29T03:58:01.582Z,8.52
2022-11-29T04:03:26.159Z,8.80
2022-11-29T04:08:48.430Z,8.70
2022-11-29T04:14:24.403Z,9.13
2022-11-29T04:19:37.831Z,10.25
2022-11-29T04:24:51.543Z,9.10
2022-11-29T04:30:23.985Z,10.80
2022-11-29T04:36:03.269Z,10.30
2022-11-29T04:41:31.167Z,9.88
2022-11-29T04:47:02.177Z,10.48
2022-11-29T04:52:32.752Z,11.82
2022-11-29T04:57:57.717Z,10.95
2022-11-29T05:03:14.658Z,10.00
2022-11-29T05:08:39.976Z,10.02
2022-11-29T05:13:58.243Z,9.95
2022-11-29T05:19:18.307Z,10.30
2022-11-29T05:24:45.513Z,11.13
2022-11-29T05:30:01.421Z,10.55
2022-11-29T05:35:48.072Z,10.05
2022-11-29T05:40:58.831Z,10.70
2022-11-29T05:46:22.693Z,9.93
2022-11-29T05:51:45.984Z,9.18
2022-11-29T05:57:06.275Z,9.98
2022-11-29T06:02:28.330Z,10.32
2022-11-29T06:07:51.637Z,10.10
2022-11-29T06:13:04.125Z,10.52
2022-11-29T06:18:40.768Z,10.82
2022-11-29T06:24:00.820Z,10.30
2022-11-29T06:29:23.999Z,10.77
2022-11-29T06:34:33.924Z,11.25
2022-11-29T06:39:35.622Z,10.60
2022-11-29T06:44:37.294Z,9.98
2022-11-29T06:50:10.616Z,10.52
2022-11-29T06:55:22.538Z,10.70
2022-11-29T07:00:28.445Z,12.18
2022-11-29T07:05:33.908Z,13.02
2022-11-29T07:10:37.300Z,13.05
2022-11-29T07:15:39.351Z,14.73
2022-11-29T07:20:43.731Z,14.68
2022-11-29T07:26:03.398Z,15.15
2022-11-29T07:31:20.080Z,15.85
2022-11-29T07:36:40.773Z,15.77
2022-11-29T07:41:52.612Z,14.02
2022-11-29T07:46:54.090Z,15.80
2022-11-29T07:51:55.691Z,16.00
2022-11-29T07:56:57.152Z,16.52
2022-11-29T08:01:59.232Z,15.70
2022-11-29T08:07:00.809Z,15.75
2022-11-29T08:12:02.269Z,17.38
2022-11-29T08:17:04.027Z,15.52
2022-11-29T08:22:05.492Z,16.52
2022-11-29T08:27:06.956Z,16.52
2022-11-29T08:32:09.052Z,15.90
2022-11-29T08:37:10.514Z,16.73
2022-11-29T08:42:11.967Z,16.30
2022-11-29T08:47:32.043Z,16.63
2022-11-29T08:52:53.495Z,16.30
2022-11-29T08:57:55.434Z,17.38
2022-11-29T09:03:16.849Z,16.25
2022-11-29T09:08:18.331Z,16.95
2022-11-29T09:13:19.803Z,16.90
2022-11-29T09:18:22.620Z,16.50
2022-11-29T09:23:24.458Z,17.20
2022-11-29T09:28:25.935Z,16.38
2022-11-29T09:33:27.395Z,17.90
2022-11-29T09:38:28.956Z,17.42
2022-11-29T09:43:38.166Z,18.17
2022-11-29T09:49:04.654Z,18.42
2022-11-29T09:54:44.186Z,19.58
2022-11-29T09:59:48.216Z,18.13
2022-11-29T10:04:53.276Z,19.90
2022-11-29T10:10:04.122Z,18.45
2022-11-29T10:15:14.032Z,18.65
2022-11-29T10:20:39.731Z,19.55
2022-11-29T10:25:53.111Z,19.75
2022-11-29T10:30:55.409Z,19.67
2022-11-29T10:35:58.985Z,18.77
2022-11-29T10:41:12.192Z,19.73
2022-11-29T10:46:26.068Z,21.40
2022-11-29T10:51:27.619Z,21.35
2022-11-29T10:56:31.169Z,21.58
2022-11-29T11:01:34.206Z,20.55
2022-11-29T11:06:46.880Z,21.27
2022-11-29T11:11:52.906Z,21.10
2022-11-29T11:16:54.569Z,21.25
2022-11-29T11:21:57.229Z,20.25
2022-11-29T11:26:58.828Z,21.15
2022-11-29T11:32:00.300Z,20.52
2022-11-29T11:37:20.458Z,22.25
2022-11-29T11:42:39.470Z,21.85
2022-11-29T11:47:49.151Z,22.65
2022-11-29T11:52:54.782Z,21.45
2022-11-29T11:58:12.057Z,24.40
2022-11-29T12:03:51.010Z,21.35
2022-11-29T12:09:09.023Z,20.73
2022-11-29T12:14:15.708Z,21.55
2022-11-29T12:19:20.507Z,20.55
2022-11-29T12:24:28.398Z,21.55
2022-11-29T12:29:31.699Z,22.38
2022-11-29T12:34:48.562Z,25.45
2022-11-29T12:39:57.297Z,21.27
2022-11-29T12:45:04.781Z,19.63
2022-11-29T12:50:27.493Z,22.85
2022-11-29T12:55:30.613Z,18.85
2022-11-29T13:00:36.002Z,21.70
2022-11-29T13:05:58.627Z,19.27
2022-11-29T13:11:11.635Z,21.95
2022-11-29T13:16:22.917Z,21.00
2022-11-29T13:21:37.274Z,22.23
2022-11-29T13:26:39.284Z,22.17
2022-11-29T13:31:40.799Z,20.75
2022-11-29T13:37:00.801Z,20.40
2022-11-29T13:42:45.327Z,21.50
2022-11-29T13:47:54.391Z,20.17
2022-11-29T13:53:03.497Z,20.85
2022-11-29T13:58:16.953Z,21.77
2022-11-29T14:03:23.455Z,20.55
2022-11-29T14:09:02.414Z,21.55
2022-11-29T14:14:10.042Z,24.10
2022-11-29T14:19:11.921Z,22.98
2022-11-29T14:24:31.869Z,22.58
2022-11-29T14:29:48.722Z,24.77
2022-11-29T14:34:55.192Z,21.98
2022-11-29T14:39:57.852Z,22.85
2022-11-29T14:45:01.303Z,25.02
2022-11-29T14:50:06.474Z,22.30
2022-11-29T14:55:16.789Z,21.30
2022-11-29T15:00:26.344Z,21.73
2022-11-29T15:10:41.248Z,23.05
2022-11-29T15:15:46.646Z,22.27
2022-11-29T15:21:21.785Z,25.40
2022-11-29T15:26:23.443Z,23.08
2022-11-29T15:31:24.943Z,24.35
2022-11-29T15:36:26.464Z,24.38
2022-11-29T15:41:29.580Z,24.10
2022-11-29T15:51:36.404Z,23.70
2022-11-29T15:56:48.958Z,21.55
2022-11-29T16:01:50.489Z,22.00
2022-11-29T16:06:51.984Z,22.30
2022-11-29T16:11:53.444Z,21.33
2022-11-29T16:16:56.608Z,23.33
2022-11-29T16:27:00.153Z,23.95
2022-11-29T16:32:13.162Z,25.50
2022-11-29T16:37:18.008Z,22.35
2022-11-29T16:42:47.915Z,21.48
2022-11-29T16:47:58.678Z,19.48
2022-11-29T16:53:37.741Z,24.27
2022-11-29T16:59:16.626Z,22.48
2022-11-29T17:04:00.775Z,21.98
2022-11-29T17:09:02.267Z,21.80
2022-11-29T17:14:03.728Z,20.88
2022-11-29T17:19:05.224Z,20.00
2022-11-29T17:24:09.650Z,22.90
2022-11-29T17:29:11.735Z,18.13
2022-11-29T17:34:13.216Z,19.67
2022-11-29T17:39:15.657Z,19.23
2022-11-29T17:44:17.180Z,20.75
2022-11-29T17:49:18.815Z,19.92
2022-11-29T17:54:21.250Z,19.70
2022-11-29T17:59:22.789Z,19.65
2022-11-29T18:04:24.326Z,19.05
2022-11-29T18:09:25.818Z,18.55
2022-11-29T18:14:30.897Z,17.10
2022-11-29T18:19:32.362Z,18.55
2022-11-29T18:24:33.819Z,16.17
2022-11-29T18:29:39.157Z,18.00
2022-11-29T18:34:40.892Z,18.00
2022-11-29T18:39:42.372Z,18.27
2022-11-29T18:44:44.073Z,17.35
2022-11-29T18:49:45.859Z,19.38
2022-11-29T18:54:47.911Z,19.83
2022-11-29T18:59:49.524Z,20.73
2022-11-29T19:04:50.980Z,21.05
2022-11-29T19:09:52.448Z,20.42
2022-11-29T19:14:54.083Z,20.00
2022-11-29T19:19:55.656Z,20.30
2022-11-29T19:24:57.153Z,21.83
2022-11-29T19:29:58.608Z,20.73
2022-11-29T19:35:00.071Z,21.83
2022-11-29T19:40:01.538Z,23.05
2022-11-29T19:45:16.987Z,22.42
2022-11-29T19:50:19.066Z,21.05
2022-11-29T19:55:20.663Z,21.35
2022-11-29T20:00:22.415Z,23.05
2022-11-29T20:05:23.946Z,23.45
2022-11-29T20:10:25.557Z,24.73
2022-11-29T20:15:27.041Z,24.67
2022-11-29T20:20:29.487Z,25.80
2022-11-29T20:25:30.973Z,25.77
2022-11-29T20:30:33.440Z,23.15
2022-11-29T20:35:35.192Z,24.80
2022-11-29T20:41:12.711Z,24.88
2022-11-29T20:46:14.286Z,24.80
2022-11-29T20:51:15.787Z,23.98
2022-11-29T20:56:17.264Z,24.63
2022-11-29T21:01:18.776Z,23.08
2022-11-29T21:06:20.277Z,22.60
2022-11-29T21:11:22.123Z,23.83
2022-11-29T21:16:30.776Z,24.20
2022-11-29T21:21:44.565Z,25.23
2022-11-29T21:26:52.369Z,25.35
2022-11-29T21:31:54.059Z,28.20
2022-11-29T21:36:57.142Z,35.13
2022-11-29T21:46:59.922Z,29.02
2022-11-29T21:52:01.388Z,27.52
2022-11-29T21:57:02.872Z,26.92
2022-11-29T22:02:04.475Z,28.02
2022-11-29T22:07:05.994Z,25.92
2022-11-29T22:12:32.041Z,28.35
2022-11-29T22:17:28.903Z,26.75
2022-11-29T22:22:30.357Z,25.20
2022-11-29T22:27:31.824Z,26.50
2022-11-29T22:32:34.355Z,24.55
2022-11-29T22:37:35.816Z,25.50
2022-11-29T22:42:37.320Z,25.38
2022-11-29T22:47:38.806Z,26.17
2022-11-29T22:52:40.270Z,25.13
2022-11-29T22:57:41.728Z,26.30
2022-11-29T23:02:43.194Z,26.40
2022-11-29T23:07:46.965Z,25.10
2022-11-29T23:12:48.436Z,27.67
2022-11-29T23:17:49.909Z,25.33
2022-11-29T23:22:51.371Z,29.48
2022-11-29T23:27:54.205Z,27.48
2022-11-29T23:32:55.681Z,25.30
2022-11-29T23:37:57.126Z,24.92
2022-11-29T23:42:58.596Z,22.75
2022-11-29T23:48:00.100Z,21.42
2022-11-29T23:53:01.557Z,22.83
2022-11-29T23:58:03.268Z,22.23
